Etta, Mississippi
Current Conditions -  °F | °C
As of 6:15 PM on Friday 28 Nov 2014 (Local Time) from KUOX Reporting Station
Clear Clear  
Wind Chill: 41°   Ceiling: Unl
Heat Index: 45°   Visibility: 10mi
Dew Point: 28°   Wind: 7mph
Humidity: 53%   Direction: 160°SSE
Pressure: 30.2"   Gusts: NA
Location:  34.47°N, 89.23°W
Report Text: KUOX 290015Z AUTO 16006KT 10SM CLR 07/M02 A3020 RMK AO2 PWINO PNO
Loading
Personal Weather Stations






























Interactive Weather Map New forecast layout! Learn more

10-Day Weather Forecast

Advertisements
Track Severe Weather on mobile